Latest Weather Observations for Mount Buller

IDV60801

Issued at 3:03 pm EDT Tuesday 28 March 2017 (issued every 30 minutes, with the page automatically refreshed every 10 minutes)

About weather observations | Map of weather stations | Latest weather observations for VIC | Other Formats
Station Details ID: 083024 Name: MOUNT BULLER Lat: -37.15 Lon: 146.44 Height: 1707.0 m
Data from the previous 72 hours. | See also: Recent months at Mount Buller
Date/Time
EDT
Temp
°C
App
Temp
°C
Dew
Point
°C
Rel
Hum
%
Delta-T
°C
Wind Press
QNH
hPa
Press
MSL
hPa
Rain since
9am
mm
Dir  Spd
km/h
Gust
km/h
Spd
kts
Gust
kts
28/03:00pm 13.9 8.2 -8.0 21 8.5 NNW 15 24 8 13 - - 0.0
28/02:30pm 14.1 8.4 -12.1 15 9.4 NNW 13 20 7 11 - - 0.0
28/02:00pm 14.8 8.8 -6.7 22 8.7 NNW 17 28 9 15 - - 0.0
28/01:30pm 14.6 9.1 -5.7 24 8.4 NW 15 28 8 15 - - 0.0
28/01:00pm 14.0 7.1 -10.6 17 9.1 NW 20 39 11 21 - - 0.0
28/12:30pm 13.9 7.1 -12.3 15 9.3 NW 19 35 10 19 - - 0.0
28/12:00pm 12.0 6.1 -5.9 28 7.2 NNW 17 24 9 13 - - 0.0
28/11:30am 11.7 5.7 -1.8 39 5.9 NNW 20 32 11 17 - - 0.0
28/11:00am 11.4 6.1 -3.9 34 6.4 NNW 15 20 8 11 - - 0.0
28/10:30am 11.2 7.2 0.6 48 4.9 NNW 11 19 6 10 - - 0.0
28/10:00am 12.0 5.2 -11.5 18 8.3 NW 19 26 10 14 - - 0.0
28/09:30am 11.6 4.8 -9.9 21 7.8 NNW 20 24 11 13 - - 0.0
28/09:00am 10.3 3.9 -11.6 20 7.5 NW 17 20 9 11 - - 7.0
28/08:30am 9.8 3.1 -18.2 12 8.2 NW 17 20 9 11 - - 7.0
28/08:00am 9.7 3.2 -22.9 8 8.6 NW 15 19 8 10 - - 7.0
28/07:30am 9.3 2.7 -24.7 7 8.6 NW 15 19 8 10 - - 7.0
28/07:00am 9.2 2.6 -24.8 7 8.6 NW 15 19 8 10 - - 7.0
28/06:30am 9.0 2.8 -24.9 7 8.5 NW 13 15 7 8 - - 7.0
28/06:00am 9.5 2.9 -26.3 6 8.8 NW 15 19 8 10 - - 7.0
28/05:30am 9.3 4.2 -28.4 5 8.8 NW 7 9 4 5 - - 7.0
28/05:00am 10.2 5.2 -30.1 4 9.3 NNW 6 7 3 4 - - 7.0
28/04:30am 10.6 5.6 -29.8 4 9.4 NW 6 13 3 7 - - 7.0
28/04:00am 9.0 2.9 -22.1 9 8.3 W 13 17 7 9 - - 7.0
28/03:30am 9.2 2.7 -23.3 8 8.5 W 15 20 8 11 - - 7.0
28/03:00am 7.6 1.2 -19.9 12 7.5 SW 15 17 8 9 - - 7.0
28/02:30am 8.7 1.4 -22.4 9 8.2 SSW 19 20 10 11 - - 7.0
28/02:00am 7.5 0.5 -12.8 22 6.5 SSW 20 26 11 14 - - 7.0
28/01:30am 7.0 -0.5 -8.9 31 5.6 SW 24 30 13 16 - - 7.0
28/01:00am 6.8 -1.0 -7.9 34 5.3 SW 26 30 14 16 - - 7.0
28/12:30am 5.7 -0.6 -4.2 49 3.8 SSW 20 26 11 14 - - 7.0
28/12:00am 5.5 -2.2 -2.8 55 3.3 SSW 28 32 15 17 - - 7.0
 
Date/Time
EDT
Temp
°C
App
Temp
°C
Dew
Point
°C
Rel
Hum
%
Delta-T
°C
Wind Press
QNH
hPa
Press
MSL
hPa
Rain since
9am
mm
Dir  Spd
km/h
Gust
km/h
Spd
kts
Gust
kts
27/11:30pm 5.3 -1.6 -3.0 55 3.3 SSW 24 28 13 15 - - 7.0
27/11:00pm 5.2 -2.3 -1.7 61 2.8 SSW 28 33 15 18 - - 7.0
27/10:30pm 5.6 -2.1 -0.4 65 2.6 S 30 37 16 20 - - 7.0
27/10:00pm 5.9 -1.7 0.5 68 2.4 S 30 37 16 20 - - 7.0
27/09:30pm 5.7 -1.3 -0.6 64 2.7 SSW 26 33 14 18 - - 7.0
27/09:00pm 5.8 -0.4 4.1 89 0.8 S 26 32 14 17 - - 7.0
27/08:30pm 6.6 -0.5 6.2 97 0.2 SSW 33 43 18 23 - - 7.0
27/08:00pm 7.9 1.1 7.8 99 0.1 SSW 33 44 18 24 - - 7.0
27/07:30pm 8.0 3.7 7.9 99 0.1 WSW 20 32 11 17 - - 7.0
27/07:00pm 9.1 3.6 9.0 99 0.1 W 28 43 15 23 - - 7.0
27/06:30pm 11.0 5.6 10.8 99 0.1 WNW 30 46 16 25 - - 7.0
27/06:09pm 11.5 6.6 11.3 99 0.1 WNW 28 57 15 31 - - 6.4
27/06:00pm 11.5 7.4 11.3 99 0.1 NW 24 61 13 33 - - 6.2
27/05:30pm 12.7 7.4 12.5 99 0.1 WNW 32 57 17 31 - - 5.0
27/05:09pm 14.5 10.2 14.3 99 0.1 NW 30 63 16 34 - - 3.6
27/05:04pm 14.7 9.1 14.5 99 0.1 NNW 37 70 20 38 - - 2.8
27/05:00pm 14.6 6.5 14.4 99 0.1 N 50 89 27 48 - - 2.8
27/04:30pm 15.2 7.2 14.7 97 0.3 NNW 50 80 27 43 - - 0.2
27/04:00pm 15.4 8.5 14.4 94 0.6 N 44 65 24 35 - - 0.0
27/03:30pm 16.8 10.4 14.4 86 1.5 N 41 61 22 33 - - 0.0
27/03:00pm 17.2 9.4 14.1 82 1.9 N 48 70 26 38 - - 0.0
27/02:30pm 16.7 8.5 12.8 78 2.4 N 48 76 26 41 - - 0.0
27/02:00pm 16.8 9.4 12.9 78 2.4 N 44 63 24 34 - - 0.0
27/01:32pm 15.3 9.7 13.3 88 1.2 N 35 54 19 29 - - 0.0
27/01:30pm 15.2 9.7 13.6 90 1.0 N 35 48 19 26 - - 0.0
27/01:01pm 15.2 9.1 12.9 86 1.4 N 37 65 20 35 - - 0.0
27/01:00pm 15.1 9.4 13.1 88 1.2 N 35 46 19 25 - - 0.0
27/12:30pm 16.7 11.1 13.4 81 2.0 N 35 52 19 28 - - 0.0
27/12:00pm 16.0 8.5 12.0 77 2.4 N 43 57 23 31 - - 0.0
27/11:30am 15.8 8.9 12.9 83 1.7 N 41 56 22 30 - - 0.0
27/11:21am 15.5 8.8 12.4 82 1.8 NNE 39 57 21 31 - - 0.0
27/11:00am 15.3 9.4 12.4 83 1.7 NNE 35 52 19 28 - - 0.0
27/10:30am 14.5 7.2 11.5 82 1.8 NNE 41 52 22 28 - - 0.0
27/10:00am 14.4 7.9 10.4 77 2.3 N 35 57 19 31 - - 0.0
27/09:53am 14.0 6.3 10.2 78 2.2 N 41 61 22 33 - - 0.0
27/09:52am 14.1 6.1 10.3 78 2.2 N 43 61 23 33 - - 0.0
27/09:47am 14.2 6.1 10.2 77 2.3 N 43 61 23 33 - - 0.0
27/09:30am 13.8 5.8 10.4 80 1.9 N 43 57 23 31 - - 0.0
27/09:00am 13.5 5.5 10.5 82 1.7 NNE 43 56 23 30 - - 0.0
27/08:30am 13.5 6.0 10.7 83 1.6 N 41 57 22 31 - - 0.0
27/08:12am 13.2 5.2 10.6 84 1.5 NNE 43 61 23 33 - - 0.0
27/08:00am 13.0 5.0 10.5 85 1.4 N 43 59 23 32 - - 0.0
27/07:30am 12.8 5.6 10.5 86 1.3 N 39 54 21 29 - - 0.0
27/07:00am 12.6 6.1 10.5 87 1.2 NNE 35 48 19 26 - - 0.0
27/06:30am 12.7 7.1 10.2 85 1.4 N 30 46 16 25 - - 0.0
27/06:00am 13.0 7.0 10.2 83 1.6 N 32 48 17 26 - - 0.0
27/05:30am 13.3 7.2 10.5 83 1.6 N 33 44 18 24 - - 0.0
27/05:00am 13.1 7.0 10.6 85 1.4 N 33 43 18 23 - - 0.0
27/04:30am 13.0 7.5 10.5 85 1.4 N 30 46 16 25 - - 0.0
27/04:00am 13.3 6.9 10.7 84 1.5 N 35 46 19 25 - - 0.0
27/03:35am 13.4 7.7 11.1 86 1.3 N 32 50 17 27 - - 0.0
27/03:30am 13.4 7.4 10.9 85 1.4 N 33 50 18 27 - - 0.0
27/03:00am 13.3 7.4 11.0 86 1.3 N 33 46 18 25 - - 0.0
27/02:30am 13.2 7.5 11.1 87 1.2 N 32 39 17 21 - - 0.0
27/02:00am 13.4 7.2 11.3 87 1.2 N 35 44 19 24 - - 0.0
27/01:30am 13.8 7.6 11.3 85 1.4 N 35 48 19 26 - - 0.0
27/01:00am 13.5 7.9 11.6 88 1.1 N 32 39 17 21 - - 0.0
27/12:30am 13.2 7.6 11.4 89 1.0 N 32 41 17 22 - - 0.0
27/12:00am 13.2 7.4 11.6 90 0.9 N 33 43 18 23 - - 0.0
 
Date/Time
EDT
Temp
°C
App
Temp
°C
Dew
Point
°C
Rel
Hum
%
Delta-T
°C
Wind Press
QNH
hPa
Press
MSL
hPa
Rain since
9am
mm
Dir  Spd
km/h
Gust
km/h
Spd
kts
Gust
kts
26/11:30pm 13.0 7.5 11.9 93 0.6 N 32 39 17 21 - - 0.0
26/11:00pm 12.9 7.9 12.3 96 0.4 N 30 35 16 19 - - 0.0
26/10:30pm 12.8 8.2 12.2 96 0.4 N 28 35 15 19 - - 0.0
26/10:00pm 12.9 8.2 12.1 95 0.5 N 28 32 15 17 - - 0.0
26/09:30pm 12.9 8.8 12.6 98 0.2 N 26 33 14 18 - - 0.0
26/09:00pm 13.1 9.4 12.6 97 0.3 N 24 32 13 17 - - 0.0
26/08:30pm 13.1 9.5 12.0 93 0.6 N 22 28 12 15 - - 0.0
26/08:00pm 13.2 10.0 11.9 92 0.8 N 20 28 11 15 - - 0.0
26/07:30pm 13.5 10.2 11.7 89 1.0 N 20 28 11 15 - - 0.0
26/07:00pm 13.4 10.1 11.6 89 1.0 N 20 26 11 14 - - 0.0
26/06:30pm 14.3 11.5 12.7 90 1.0 N 19 24 10 13 - - 0.0
26/06:00pm 15.1 11.8 11.7 80 2.0 N 20 26 11 14 - - 0.0
26/05:30pm 14.9 12.0 12.2 84 1.6 N 19 28 10 15 - - 0.0
26/05:00pm 16.3 14.0 13.0 81 2.0 N 17 26 9 14 - - 0.0
26/04:30pm 16.2 13.2 12.0 76 2.5 NNW 19 32 10 17 - - 0.0
26/04:00pm 15.7 13.3 12.5 81 1.9 N 17 30 9 16 - - 0.0
26/03:30pm 15.2 13.7 13.1 87 1.3 N 13 20 7 11 - - 0.0
26/03:00pm 15.5 14.4 13.0 85 1.5 NNW 11 20 6 11 - - 0.0
26/02:30pm 15.7 13.3 12.8 83 1.7 NNW 17 24 9 13 - - 0.0
26/02:00pm 15.7 14.3 13.4 86 1.4 NNW 13 24 7 13 - - 0.0
26/01:30pm 15.7 13.7 12.8 83 1.7 NNW 15 26 8 14 - - 0.0
26/01:00pm 15.0 13.5 13.0 88 1.2 NNW 13 20 7 11 - - 0.0
26/12:30pm 14.6 12.2 12.6 88 1.2 NNW 17 26 9 14 - - 0.0
26/12:00pm 14.0 11.6 12.7 92 0.8 NNW 17 26 9 14 - - 0.0
26/11:30am 14.1 11.7 12.7 91 0.8 NNW 17 28 9 15 - - 0.0
26/11:00am 14.0 11.7 12.9 93 0.7 NNW 17 24 9 13 - - 0.0
26/10:30am 13.4 10.5 12.3 93 0.6 NNW 19 28 10 15 - - 0.0
26/10:00am 13.0 10.6 12.5 97 0.3 NNW 17 24 9 13 - - 0.0
26/09:30am 13.3 10.5 13.1 99 0.1 NNW 20 26 11 14 - - 0.0
26/09:00am 13.0 10.1 12.4 96 0.4 NNW 19 28 10 15 - - 1.0
26/08:30am 12.4 9.7 11.8 96 0.3 NNW 17 22 9 12 - - 1.0
26/08:00am 11.7 10.1 11.5 99 0.1 NW 11 15 6 8 - - 1.0
26/07:30am 11.1 8.9 10.9 99 0.1 NW 13 19 7 10 - - 1.0
26/07:00am 11.2 8.7 11.0 99 0.1 NW 15 20 8 11 - - 1.0
26/06:30am 11.5 9.8 11.3 99 0.1 NW 11 19 6 10 - - 1.0
26/06:00am 11.6 10.0 11.4 99 0.1 NW 11 19 6 10 - - 1.0
26/05:30am 11.6 9.6 11.4 99 0.1 WNW 13 20 7 11 - - 1.0
26/05:00am 11.6 8.8 11.4 99 0.1 WNW 17 24 9 13 - - 1.0
26/04:30am 11.7 8.9 11.4 98 0.2 WNW 17 20 9 11 - - 1.0
26/04:00am 11.7 9.2 11.1 96 0.3 WNW 15 22 8 12 - - 1.0
26/03:30am 11.9 9.2 11.6 98 0.2 WNW 17 20 9 11 - - 1.0
26/03:00am 11.8 8.9 11.0 95 0.5 WNW 17 28 9 15 - - 1.0
26/02:30am 11.9 9.0 11.0 94 0.5 WNW 17 24 9 13 - - 1.0
26/02:00am 11.9 9.7 10.8 93 0.6 NW 13 19 7 10 - - 1.0
26/01:30am 11.9 10.4 10.5 91 0.8 NW 9 15 5 8 - - 1.0
26/01:00am 12.0 9.9 9.6 85 1.3 NW 11 15 6 8 - - 1.0
26/12:30am 12.0 10.4 10.1 88 1.1 NW 9 15 5 8 - - 1.0
26/12:00am 11.7 9.8 10.4 92 0.7 NW 11 13 6 7 - - 1.0
 
Date/Time
EDT
Temp
°C
App
Temp
°C
Dew
Point
°C
Rel
Hum
%
Delta-T
°C
Wind Press
QNH
hPa
Press
MSL
hPa
Rain since
9am
mm
Dir  Spd
km/h
Gust
km/h
Spd
kts
Gust
kts
25/11:30pm 12.3 10.8 10.5 89 1.0 W 9 11 5 6 - - 1.0
25/11:00pm 11.8 10.8 10.4 91 0.8 WNW 6 9 3 5 - - 1.0
25/10:30pm 11.8 10.6 9.7 87 1.2 NNW 6 7 3 4 - - 1.0
25/10:00pm 12.2 11.1 9.9 86 1.3 WNW 6 13 3 7 - - 1.0
25/09:30pm 12.4 10.6 9.6 83 1.6 W 9 15 5 8 - - 1.0
25/09:00pm 11.8 9.9 9.0 83 1.5 WNW 9 13 5 7 - - 1.0
25/08:30pm 11.5 9.7 10.9 96 0.3 SSW 11 13 6 7 - - 1.0
25/08:00pm 12.0 9.9 8.1 77 2.1 W 9 13 5 7 - - 1.0
25/07:30pm 11.8 9.8 8.6 81 1.7 WNW 9 15 5 8 - - 1.0
25/07:00pm 12.1 11.0 11.8 98 0.2 NW 9 17 5 9 - - 1.0
25/06:30pm 12.4 11.7 11.9 97 0.3 NNW 7 9 4 5 - - 1.0
25/06:00pm 13.4 12.8 12.3 93 0.6 NW 7 11 4 6 - - 1.0
25/05:30pm 12.4 10.3 11.0 91 0.8 W 13 19 7 10 - - 1.0
25/05:00pm 12.2 10.6 11.7 97 0.3 WSW 11 17 6 9 - - 1.0
25/04:30pm 12.1 10.2 11.9 99 0.1 WSW 13 22 7 12 - - 1.0
25/04:00pm 12.6 10.9 12.4 99 0.1 WSW 13 24 7 13 - - 1.0
25/03:30pm 12.2 9.2 12.0 99 0.1 WSW 19 32 10 17 - - 1.0

Other Formats:

Comma delimited format used in spreadsheet applications
http://www.bom.gov.au/fwo/IDV60801/IDV60801.94894.axf

JavaScript Object Notation format (JSON) in row-major order
http://www.bom.gov.au/fwo/IDV60801/IDV60801.94894.json